Mandeville, Louisiana
Current Conditions -  °F | °C
As of 5:53 AM on Sunday 21 Dec 2014 (Local Time) from KASD Reporting Station
Overcast Overcast  
Wind Chill: 50°   Ceiling: 1100
Heat Index: 50°   Visibility: 10mi
Dew Point: 46°   Wind: 3mph
Humidity: 86%   Direction: 20°NNE
Pressure: 30.1"   Gusts: NA
Location:  30.37°N, 90.08°W
Report Text: KASD 211153Z AUTO 02003KT 10SM BKN011 OVC050 10/08 A3010 RMK AO2 SLP193 T01000078 10111 20100 57009
Loading
Personal Weather Stations






























Interactive Weather Map New forecast layout! Learn more

10-Day Weather Forecast

Advertisements
Track Severe Weather on mobile